Time;durP1;ratioP1;P1;durP2;ratioP2;P2;SDS_P1;SDS_P2;PMS_P1;PMS_P2;Temp;Humidity;BMP_temperature;BMP_pressure;BME280_temperature;BME280_humidity;BME280_pressure;Samples;Min_cycle;Max_cycle;Signal;HPM_P1;HPM_P2
2024/04/13 00:03:03;;;;;;;4.45;1.45;;;;;;;14.45;100.00;102583.50;11065603;26;20007;-73
2024/04/13 00:08:03;;;;;;;3.53;1.10;;;;;;;14.35;100.00;102569.28;11010000;26;20007;-73
2024/04/13 00:13:04;;;;;;;3.75;1.15;;;;;;;14.36;100.00;102579.19;11009574;26;19993;-73
2024/04/13 00:18:07;;;;;;;2.05;1.00;;;;;;;14.32;100.00;102569.66;11066813;26;19993;-73
2024/04/13 00:23:07;;;;;;;4.57;1.38;;;;;;;14.24;100.00;102569.72;11038345;26;20008;-72
2024/04/13 00:28:09;;;;;;;5.50;2.30;;;;;;;14.25;100.00;102563.25;11037508;26;20388;-73
2024/04/13 00:33:09;;;;;;;3.42;1.23;;;;;;;14.24;100.00;102558.81;11068697;26;19993;-73
2024/04/13 00:38:11;;;;;;;5.03;1.88;;;;;;;14.22;100.00;102561.72;11068427;26;19997;-73
2024/04/13 00:43:12;;;;;;;8.90;1.55;;;;;;;14.19;100.00;102541.13;11066714;26;20405;-73
2024/04/13 00:48:17;;;;;;;1.17;1.08;;;;;;;14.15;100.00;102528.91;11066353;26;20013;-74
2024/04/13 00:53:18;;;;;;;3.35;1.65;;;;;;;14.16;100.00;102530.59;11038561;26;19993;-73
2024/04/13 00:58:25;;;;;;;1.92;1.25;;;;;;;14.17;100.00;102526.00;11036299;26;20029;-73
2024/04/13 01:03:26;;;;;;;1.13;0.95;;;;;;;14.14;100.00;102527.22;11066434;26;20021;-73
2024/04/13 01:08:28;;;;;;;2.00;1.75;;;;;;;14.11;100.00;102513.13;11064261;26;20028;-73
2024/04/13 01:13:29;;;;;;;4.47;1.75;;;;;;;14.02;100.00;102512.31;11063048;26;20012;-73
2024/04/13 01:18:29;;;;;;;3.25;1.52;;;;;;;14.04;100.00;102523.88;11064656;26;20033;-73
2024/04/13 01:23:30;;;;;;;3.42;2.03;;;;;;;14.03;100.00;102524.06;11035370;26;20033;-73
2024/04/13 01:28:32;;;;;;;2.10;2.00;;;;;;;13.96;100.00;102510.31;11064431;26;20071;-73
2024/04/13 01:33:33;;;;;;;6.15;2.15;;;;;;;13.91;100.00;102507.28;11008724;26;19993;-73
2024/04/13 01:38:33;;;;;;;4.50;1.55;;;;;;;13.86;100.00;102512.44;11037146;26;20381;-73
2024/04/13 01:43:33;;;;;;;4.57;2.50;;;;;;;13.85;100.00;102516.19;11042446;26;20008;-73
2024/04/13 01:48:34;;;;;;;1.55;1.45;;;;;;;13.77;100.00;102508.91;11073335;26;20036;-73
2024/04/13 01:53:34;;;;;;;1.92;1.65;;;;;;;13.76;100.00;102512.66;11034640;26;20452;-73
2024/04/13 01:58:35;;;;;;;3.63;1.63;;;;;;;13.71;100.00;102515.91;11062656;26;19996;-73
2024/04/13 02:03:39;;;;;;;5.78;1.90;;;;;;;13.61;100.00;102515.28;11064364;26;20062;-73
2024/04/13 02:08:39;;;;;;;3.20;1.58;;;;;;;13.52;100.00;102516.34;11062514;26;20008;-73
2024/04/13 02:13:40;;;;;;;2.67;2.08;;;;;;;13.43;100.00;102512.84;11063844;26;20007;-73
2024/04/13 02:18:40;;;;;;;5.53;2.80;;;;;;;13.34;100.00;102521.22;11062776;26;20005;-73
2024/04/13 02:23:41;;;;;;;10.18;2.33;;;;;;;13.26;100.00;102524.78;11005854;26;20325;-73
2024/04/13 02:28:41;;;;;;;2.53;1.67;;;;;;;13.21;100.00;102519.03;11064298;26;19996;-73
2024/04/13 02:33:42;;;;;;;1.85;1.63;;;;;;;13.14;100.00;102523.44;11063452;26;20156;-73
2024/04/13 02:38:42;;;;;;;2.42;1.55;;;;;;;13.07;100.00;102519.72;11033264;26;20021;-73
2024/04/13 02:43:43;;;;;;;2.22;2.03;;;;;;;12.97;100.00;102515.31;11032529;26;20028;-73
2024/04/13 02:48:47;;;;;;;5.03;1.77;;;;;;;12.89;100.00;102509.06;11033012;26;20030;-73
2024/04/13 02:53:48;;;;;;;3.13;2.35;;;;;;;12.85;100.00;102510.44;11035663;26;20020;-73
2024/04/13 02:58:48;;;;;;;4.10;2.55;;;;;;;12.86;100.00;102515.72;11063445;26;19997;-73
2024/04/13 03:03:49;;;;;;;5.72;1.90;;;;;;;12.81;100.00;102507.22;11061172;26;20081;-73
2024/04/13 03:08:50;;;;;;;4.55;2.67;;;;;;;12.78;100.00;102502.13;11061100;26;19997;-73
2024/04/13 03:13:51;;;;;;;8.45;2.47;;;;;;;12.77;100.00;102500.44;11003989;26;20001;-73
2024/04/13 03:18:53;;;;;;;2.67;1.65;;;;;;;12.73;100.00;102505.38;11031651;26;20004;-72
2024/04/13 03:23:54;;;;;;;1.92;1.65;;;;;;;12.72;100.00;102492.78;11003830;26;19997;-72
2024/04/13 03:28:54;;;;;;;4.10;2.45;;;;;;;12.72;100.00;102491.94;11062454;26;19993;-73
2024/04/13 03:33:56;;;;;;;4.70;2.85;;;;;;;12.72;100.00;102490.06;11062665;26;20001;-73
2024/04/13 03:38:57;;;;;;;2.67;2.47;;;;;;;12.66;100.00;102482.59;11064253;26;19999;-73
2024/04/13 03:43:57;;;;;;;2.17;2.08;;;;;;;12.62;100.00;102489.41;11067977;26;20021;-73
2024/04/13 03:48:58;;;;;;;4.20;1.95;;;;;;;12.64;100.00;102481.94;11037253;26;20008;-72
2024/04/13 03:53:59;;;;;;;5.28;2.28;;;;;;;12.64;100.00;102481.94;11066314;26;20093;-72
2024/04/13 03:58:59;;;;;;;3.30;2.10;;;;;;;12.65;100.00;102480.91;11066962;26;20392;-73
2024/04/13 04:04:00;;;;;;;5.82;2.60;;;;;;;12.65;100.00;102478.19;11068536;26;20000;-73
2024/04/13 04:09:01;;;;;;;4.45;2.22;;;;;;;12.63;100.00;102471.22;11068214;26;20007;-73
2024/04/13 04:14:01;;;;;;;1.45;1.35;;;;;;;12.64;100.00;102476.50;11066884;26;20004;-72
2024/04/13 04:19:02;;;;;;;2.08;1.98;;;;;;;12.63;100.00;102468.50;11070300;26;20008;-73
2024/04/13 04:24:02;;;;;;;2.25;2.13;;;;;;;12.61;100.00;102467.84;11072268;26;20044;-73
2024/04/13 04:29:03;;;;;;;5.07;2.33;;;;;;;12.62;100.00;102469.53;11066936;26;20078;-73
2024/04/13 04:34:03;;;;;;;3.65;1.63;;;;;;;12.55;100.00;102475.66;11065588;26;19997;-72
2024/04/13 04:39:03;;;;;;;2.70;2.47;;;;;;;12.55;100.00;102472.09;11008857;26;20007;-72
2024/04/13 04:44:04;;;;;;;7.60;2.78;;;;;;;12.54;100.00;102470.41;11066409;26;19997;-73
2024/04/13 04:49:05;;;;;;;2.28;2.08;;;;;;;12.61;100.00;102465.13;11065159;26;20093;-73
2024/04/13 04:54:08;;;;;;;2.25;1.80;;;;;;;12.67;100.00;102459.00;11067607;26;20004;-73
2024/04/13 04:59:08;;;;;;;2.42;2.25;;;;;;;12.69;100.00;102457.78;11065713;26;20352;-73
2024/04/13 05:04:09;;;;;;;4.38;3.15;;;;;;;12.72;100.00;102453.88;11064651;26;20067;-73
2024/04/13 05:09:10;;;;;;;6.15;2.40;;;;;;;12.78;100.00;102447.75;11065064;26;20008;-73
2024/04/13 05:14:10;;;;;;;8.27;2.35;;;;;;;12.84;100.00;102443.50;11064386;26;20362;-73
2024/04/13 05:19:11;;;;;;;3.33;2.30;;;;;;;12.93;100.00;102451.44;11063610;26;19997;-73
2024/04/13 05:24:11;;;;;;;4.43;2.60;;;;;;;13.03;100.00;102443.09;11035170;26;20073;-73
2024/04/13 05:29:13;;;;;;;6.30;2.50;;;;;;;13.19;100.00;102439.44;11034872;26;20361;-73
2024/04/13 05:34:13;;;;;;;4.60;2.42;;;;;;;13.46;100.00;102441.72;11064670;26;19997;-73
2024/04/13 05:39:14;;;;;;;3.97;2.03;;;;;;;13.67;100.00;102446.50;11064910;26;20000;-73
2024/04/13 05:44:14;;;;;;;2.22;2.13;;;;;;;13.84;100.00;102443.66;11063021;26;20443;-73
2024/04/13 05:49:16;;;;;;;4.10;3.00;;;;;;;13.99;100.00;102441.88;11064766;26;19997;-72
2024/04/13 05:54:16;;;;;;;3.30;2.60;;;;;;;14.19;100.00;102453.94;11063305;26;20453;-73
2024/04/13 05:59:16;;;;;;;3.00;2.47;;;;;;;14.49;100.00;102456.75;11064116;26;20025;-73
2024/04/13 06:04:17;;;;;;;3.35;2.55;;;;;;;14.66;100.00;102449.28;11063148;26;20008;-73
2024/04/13 06:09:17;;;;;;;2.30;2.10;;;;;;;14.88;100.00;102461.13;11062717;26;20004;-73
2024/04/13 06:14:18;;;;;;;8.88;3.00;;;;;;;15.03;100.00;102464.72;11008396;26;20403;-73
2024/04/13 06:19:18;;;;;;;6.90;2.92;;;;;;;15.24;100.00;102457.63;11062805;26;20005;-73
2024/04/13 06:24:19;;;;;;;9.75;2.33;;;;;;;15.39;100.00;102439.34;11062189;26;20032;-73
2024/04/13 06:29:19;;;;;;;3.03;2.33;;;;;;;15.60;100.00;102452.16;11062352;26;20073;-73
2024/04/13 06:34:20;;;;;;;5.57;3.03;;;;;;;16.09;100.00;102450.63;10964601;26;20001;-75
2024/04/13 06:39:20;;;;;;;4.10;2.75;;;;;;;16.34;100.00;102451.88;10989942;27;20028;-73
2024/04/13 06:44:21;;;;;;;3.35;2.25;;;;;;;16.71;100.00;102445.19;10961606;27;19989;-73
2024/04/13 06:49:21;;;;;;;8.68;1.95;;;;;;;16.95;100.00;102446.66;10992423;26;20025;-73
2024/04/13 06:54:22;;;;;;;2.35;2.15;;;;;;;17.03;100.00;102437.41;11019207;26;20063;-73
2024/04/13 06:59:24;;;;;;;4.05;3.28;;;;;;;17.58;100.00;102429.19;10993609;26;19998;-73
2024/04/13 07:04:24;;;;;;;3.95;1.95;;;;;;;17.85;100.00;102436.44;10961142;26;19994;-73
2024/04/13 07:09:24;;;;;;;4.80;3.03;;;;;;;17.66;100.00;102424.38;11019352;26;20414;-73
2024/04/13 07:14:25;;;;;;;2.72;2.38;;;;;;;17.41;100.00;102429.56;10989988;26;20002;-72
2024/04/13 07:19:25;;;;;;;8.65;3.63;;;;;;;17.56;100.00;102425.84;10990423;26;19998;-73
2024/04/13 07:24:29;;;;;;;2.75;2.55;;;;;;;18.29;100.00;102413.06;10988549;27;20426;-73
2024/04/13 07:29:29;;;;;;;2.88;2.60;;;;;;;18.99;100.00;102407.03;10991298;26;20010;-74
2024/04/13 07:34:30;;;;;;;4.50;2.47;;;;;;;19.41;100.00;102402.00;10959614;27;20034;-73
2024/04/13 07:39:30;;;;;;;3.28;2.97;;;;;;;19.22;100.00;102404.63;10989735;26;20012;-73
2024/04/13 07:44:31;;;;;;;3.50;3.15;;;;;;;19.14;100.00;102406.75;10943558;26;20080;-73
2024/04/13 07:49:31;;;;;;;3.25;3.03;;;;;;;19.50;100.00;102406.16;11055629;26;20020;-72
2024/04/13 07:54:32;;;;;;;3.60;3.20;;;;;;;20.05;99.04;102392.69;11030286;26;20060;-73
2024/04/13 07:59:32;;;;;;;3.95;3.00;;;;;;;20.00;91.28;102391.66;11061084;26;20304;-73
2024/04/13 08:04:33;;;;;;;6.07;3.38;;;;;;;20.51;91.10;102396.94;11060793;26;20405;-73
2024/04/13 08:09:36;;;;;;;8.63;3.33;;;;;;;20.76;88.47;102390.53;11058650;26;20482;-73
2024/04/13 08:14:36;;;;;;;3.72;3.42;;;;;;;20.87;94.02;102381.50;11060622;26;20458;-73
2024/04/13 08:19:37;;;;;;;3.85;3.28;;;;;;;21.12;84.35;102378.63;11060279;26;20008;-72
2024/04/13 08:24:37;;;;;;;5.32;2.83;;;;;;;20.95;85.79;102374.84;11061691;26;20386;-73
2024/04/13 08:29:38;;;;;;;3.83;3.22;;;;;;;20.58;86.72;102359.19;11064652;26;19993;-73
2024/04/13 08:34:38;;;;;;;12.30;3.60;;;;;;;21.49;84.80;102348.28;11065353;26;20008;-73
2024/04/13 08:39:40;;;;;;;3.67;2.60;;;;;;;21.68;76.26;102357.31;11066829;26;20357;-73
2024/04/13 08:44:42;;;;;;;3.60;3.30;;;;;;;21.66;73.97;102349.25;11064607;26;20445;-73
2024/04/13 08:49:42;;;;;;;2.65;2.45;;;;;;;22.01;78.23;102340.19;11064385;26;19993;-73
2024/04/13 08:54:43;;;;;;;10.13;3.42;;;;;;;22.59;74.71;102342.13;11064738;26;20016;-73
2024/04/13 08:59:43;;;;;;;3.85;3.53;;;;;;;22.93;75.71;102326.56;11035123;26;19997;-73
2024/04/13 09:04:44;;;;;;;2.75;2.55;;;;;;;23.08;67.22;102320.50;11007260;26;19999;-73
2024/04/13 09:09:44;;;;;;;6.82;3.05;;;;;;;22.97;70.71;102307.56;11007008;26;20008;-73
2024/04/13 09:14:45;;;;;;;4.20;3.75;;;;;;;22.41;67.43;102298.09;11063674;26;19993;-73
2024/04/13 09:19:45;;;;;;;4.80;3.25;;;;;;;22.21;72.02;102290.22;11065700;26;20008;-73
2024/04/13 09:24:45;;;;;;;6.50;2.70;;;;;;;22.54;71.66;102284.03;11064115;26;20423;-71
2024/04/13 09:29:46;;;;;;;6.70;2.58;;;;;;;23.26;67.49;102288.19;11067629;26;19993;-72
2024/04/13 09:34:47;;;;;;;3.63;3.33;;;;;;;23.54;67.88;102290.06;11069933;26;20004;-72
2024/04/13 09:39:47;;;;;;;3.40;2.80;;;;;;;23.77;66.50;102289.94;11066681;26;20007;-73
2024/04/13 09:44:47;;;;;;;5.80;2.72;;;;;;;24.04;62.62;102280.94;11065055;26;20049;-73
2024/04/13 09:49:50;;;;;;;4.47;4.05;;;;;;;24.07;66.02;102284.03;10953115;26;20006;-73
2024/04/13 09:54:50;;;;;;;6.25;3.80;;;;;;;23.56;63.93;102268.56;10993335;26;19997;-73
2024/04/13 09:59:51;;;;;;;7.13;4.07;;;;;;;23.98;66.21;102259.81;10963318;27;20017;-73
2024/04/13 10:04:52;;;;;;;4.75;4.03;;;;;;;23.72;64.78;102259.44;10992953;26;20016;-73
2024/04/13 10:09:58;;;;;;;5.72;3.90;;;;;;;23.70;66.25;102266.31;10991384;27;20026;-73
2024/04/13 10:14:58;;;;;;;5.07;4.57;;;;;;;24.02;66.74;102255.44;10991940;27;20430;-73
2024/04/13 10:19:59;;;;;;;5.90;5.30;;;;;;;24.59;65.38;102247.63;10962083;27;19997;-73
2024/04/13 10:25:04;;;;;;;6.57;5.97;;;;;;;24.96;62.59;102249.72;10990743;27;20386;-73
2024/04/13 10:30:05;;;;;;;11.27;6.25;;;;;;;25.26;64.01;102240.88;10990666;27;19993;-73
2024/04/13 10:35:07;;;;;;;7.78;6.00;;;;;;;25.67;66.23;102238.41;10991685;26;19998;-73
2024/04/13 10:40:08;;;;;;;9.82;6.22;;;;;;;25.66;59.98;102230.38;10990028;27;20034;-73
2024/04/13 10:45:14;;;;;;;6.78;6.18;;;;;;;25.16;62.10;102226.91;10961892;27;20034;-73
2024/04/13 10:50:15;;;;;;;7.32;6.45;;;;;;;25.02;61.99;102214.56;10990394;27;20015;-72
2024/04/13 10:55:21;;;;;;;7.75;6.90;;;;;;;25.11;63.09;102203.81;10963573;27;20136;-73
2024/04/13 11:00:21;;;;;;;7.43;6.30;;;;;;;24.82;65.44;102198.56;10992561;26;20001;-73
2024/04/13 11:05:22;;;;;;;6.82;5.45;;;;;;;25.66;61.62;102200.69;10991253;26;19998;-73
2024/04/13 11:10:22;;;;;;;11.20;5.68;;;;;;;25.09;63.11;102187.47;10991668;26;20044;-73
2024/04/13 11:15:23;;;;;;;7.82;6.78;;;;;;;24.79;60.88;102183.31;10989487;27;20002;-73
2024/04/13 11:20:23;;;;;;;10.27;6.15;;;;;;;25.04;64.11;102179.09;10990634;26;20323;-73
2024/04/13 11:25:24;;;;;;;7.97;7.15;;;;;;;25.74;60.48;102171.59;10988953;27;20013;-73
2024/04/13 11:30:25;;;;;;;8.35;6.60;;;;;;;26.03;60.97;102177.59;10989042;27;20075;-70
2024/04/13 11:35:25;;;;;;;8.52;6.57;;;;;;;26.83;58.29;102171.75;11018147;26;20076;-72
2024/04/13 11:40:32;;;;;;;10.02;6.85;;;;;;;27.36;55.39;102155.63;10959540;27;20001;-70
2024/04/13 11:45:33;;;;;;;6.13;5.25;;;;;;;26.67;56.73;102152.28;10959114;27;20283;-69
2024/04/13 11:50:33;;;;;;;9.73;5.45;;;;;;;26.22;54.76;102139.06;10989626;26;20013;-70
2024/04/13 11:55:34;;;;;;;5.75;4.40;;;;;;;26.65;56.51;102143.38;10990678;26;20021;-70
2024/04/13 12:00:34;;;;;;;6.20;5.65;;;;;;;26.48;54.58;102131.66;10995064;26;20223;-73
2024/04/13 12:05:35;;;;;;;10.00;4.85;;;;;;;26.46;53.03;102116.38;10967830;27;20481;-70
2024/04/13 12:10:35;;;;;;;4.18;3.88;;;;;;;26.89;53.11;102113.09;10998496;26;20001;-69
2024/04/13 12:15:36;;;;;;;6.82;4.30;;;;;;;26.97;51.42;102105.31;10995020;27;19998;-69
2024/04/13 12:20:37;;;;;;;3.15;2.95;;;;;;;27.11;52.00;102103.63;10994379;26;20418;-70
2024/04/13 12:25:38;;;;;;;4.43;4.10;;;;;;;27.08;51.26;102102.25;10965833;27;20001;-70
2024/04/13 12:30:39;;;;;;;11.18;4.07;;;;;;;27.66;52.92;102104.63;10995779;26;20009;-70
2024/04/13 12:35:40;;;;;;;5.55;3.00;;;;;;;27.36;48.52;102109.19;10995306;26;20004;-70
2024/04/13 12:40:40;;;;;;;3.38;3.08;;;;;;;26.59;49.38;102097.25;11022908;26;20001;-69
2024/04/13 12:45:41;;;;;;;2.50;2.20;;;;;;;26.85;48.17;102089.75;10995511;26;20002;-70
2024/04/13 12:50:42;;;;;;;2.35;2.15;;;;;;;26.96;47.24;102075.84;10995367;26;20312;-70
2024/04/13 12:55:42;;;;;;;3.58;2.35;;;;;;;27.48;47.00;102078.28;10965235;27;20001;-70
2024/04/13 13:00:42;;;;;;;4.82;1.83;;;;;;;27.63;44.83;102068.19;10993706;27;20387;-70
2024/04/13 13:05:43;;;;;;;3.45;1.70;;;;;;;27.01;45.94;102064.72;10995449;26;20029;-70
2024/04/13 13:10:43;;;;;;;5.20;2.55;;;;;;;27.06;47.88;102064.72;11021539;26;20080;-69
2024/04/13 13:15:44;;;;;;;3.58;2.50;;;;;;;26.95;47.80;102052.78;10994894;26;20471;-68
2024/04/13 13:20:45;;;;;;;3.22;2.67;;;;;;;27.25;50.08;102040.81;10963852;27;19997;-69
2024/04/13 13:25:45;;;;;;;4.28;3.45;;;;;;;27.32;50.23;102052.47;10993713;26;20012;-69
2024/04/13 13:30:46;;;;;;;7.68;3.45;;;;;;;27.10;50.72;102035.25;10994062;26;20009;-74
2024/04/13 13:35:46;;;;;;;4.00;3.55;;;;;;;26.79;51.23;102020.56;10991829;27;20338;-70
2024/04/13 13:40:46;;;;;;;6.80;3.70;;;;;;;26.71;51.51;102030.31;10993542;26;20002;-71
2024/04/13 13:45:47;;;;;;;3.10;2.83;;;;;;;26.05;51.72;102014.41;10993181;26;20461;-67
2024/04/13 13:50:47;;;;;;;3.72;3.38;;;;;;;25.88;53.74;102011.03;10990665;27;20063;-71
2024/04/13 13:55:48;;;;;;;6.72;4.05;;;;;;;25.62;54.65;102010.94;10990850;27;20418;-69
2024/04/13 14:00:48;;;;;;;4.55;3.33;;;;;;;25.71;54.32;101995.41;10969540;26;20021;-70
2024/04/13 14:05:49;;;;;;;4.13;3.08;;;;;;;25.82;55.11;101982.44;11032446;26;20334;-73
2024/04/13 14:10:49;;;;;;;6.88;2.55;;;;;;;25.54;55.00;101974.56;11063908;26;20039;-69
2024/04/13 14:15:50;;;;;;;10.45;3.60;;;;;;;25.28;54.78;101955.88;11064824;26;20017;-75
2024/04/13 14:20:50;;;;;;;11.90;4.03;;;;;;;25.35;54.68;101943.69;11061471;26;20004;-71
2024/04/13 14:25:50;;;;;;;4.85;3.75;;;;;;;24.83;55.35;101937.06;11062776;26;19992;-73
2024/04/13 14:30:51;;;;;;;3.83;3.35;;;;;;;24.80;56.10;101945.91;11063017;26;20004;-74
2024/04/13 14:35:51;;;;;;;3.38;3.08;;;;;;;24.70;57.18;101932.00;11061273;26;20012;-74
2024/04/13 14:40:52;;;;;;;15.07;4.38;;;;;;;24.77;56.39;101929.81;11065754;26;20015;-75
2024/04/13 14:45:52;;;;;;;9.85;3.67;;;;;;;24.46;57.31;101928.78;11065391;26;20314;-73
2024/04/13 14:50:53;;;;;;;3.92;3.63;;;;;;;24.45;58.75;101916.88;10968572;26;20026;-74
2024/04/13 14:55:56;;;;;;;5.07;3.75;;;;;;;24.11;58.31;101913.50;11061399;26;19997;-73
2024/04/13 15:01:05;;;;;;;6.40;3.60;;;;;;;23.58;58.66;101906.88;11063200;26;20011;-73
2024/04/13 15:06:05;;;;;;;6.95;3.70;;;;;;;22.65;60.09;101898.50;11004162;26;20009;-73
2024/04/13 15:11:06;;;;;;;3.30;3.00;;;;;;;22.28;62.15;101904.59;11060405;26;20498;-73
2024/04/13 15:16:07;;;;;;;2.42;2.17;;;;;;;22.35;62.71;101899.75;11060020;26;20001;-73
2024/04/13 15:21:07;;;;;;;4.40;3.45;;;;;;;22.37;62.58;101893.97;11031379;26;20041;-72
2024/04/13 15:26:08;;;;;;;7.60;3.28;;;;;;;22.14;63.87;101900.47;11031074;26;20001;-72
2024/04/13 15:31:08;;;;;;;3.90;2.75;;;;;;;21.91;64.51;101890.41;11060027;26;20470;-72
2024/04/13 15:36:08;;;;;;;5.75;2.83;;;;;;;21.72;66.13;101884.28;11037143;26;20066;-73
2024/04/13 15:41:09;;;;;;;4.35;3.55;;;;;;;21.66;66.14;101875.09;11068133;26;20001;-72
2024/04/13 15:46:10;;;;;;;3.17;2.08;;;;;;;21.59;65.88;101866.97;11066779;26;20077;-72
2024/04/13 15:51:10;;;;;;;3.10;1.73;;;;;;;21.29;64.57;101855.38;11068941;26;19997;-73
2024/04/13 15:56:12;;;;;;;5.07;2.70;;;;;;;21.14;64.55;101856.72;11065551;26;20011;-72
2024/04/13 16:01:12;;;;;;;4.18;2.70;;;;;;;21.21;63.97;101858.50;11069049;26;19996;-73
2024/04/13 16:06:12;;;;;;;2.20;2.10;;;;;;;21.11;61.75;101843.44;11066047;26;19997;-72
2024/04/13 16:11:13;;;;;;;4.63;1.98;;;;;;;21.03;63.27;101843.84;11036851;26;19997;-72
2024/04/13 16:16:13;;;;;;;4.28;2.70;;;;;;;21.06;62.67;101832.34;11065596;26;20495;-72
2024/04/13 16:21:14;;;;;;;1.20;1.20;;;;;;;20.86;62.04;101826.41;11068128;26;20009;-72
2024/04/13 16:26:14;;;;;;;2.28;2.05;;;;;;;20.74;62.42;101817.31;11066334;26;20000;-73
2024/04/13 16:31:15;;;;;;;2.97;2.28;;;;;;;20.62;62.83;101809.94;11066396;26;19997;-72
2024/04/13 16:36:16;;;;;;;6.78;2.45;;;;;;;20.64;63.04;101812.44;11038534;26;20372;-72
2024/04/13 16:41:16;;;;;;;2.88;1.90;;;;;;;20.66;63.16;101808.38;11067472;26;20034;-72
2024/04/13 16:46:17;;;;;;;5.90;2.88;;;;;;;20.58;64.25;101803.28;11068064;26;20365;-72
2024/04/13 16:51:17;;;;;;;5.22;2.35;;;;;;;20.60;65.68;101797.50;11065942;26;19997;-72
2024/04/13 16:56:17;;;;;;;6.78;2.75;;;;;;;20.58;66.98;101796.91;11067027;26;20071;-72
2024/04/13 17:01:18;;;;;;;2.80;2.58;;;;;;;20.51;68.47;101791.53;11066346;26;20028;-72
2024/04/13 17:06:18;;;;;;;3.88;2.58;;;;;;;20.43;69.29;101789.97;11035701;26;19997;-72
2024/04/13 17:11:19;;;;;;;2.83;2.63;;;;;;;20.31;69.90;101785.56;11066364;26;20535;-72
2024/04/13 17:16:23;;;;;;;2.67;2.45;;;;;;;20.21;71.35;101778.75;11064948;26;20001;-72
2024/04/13 17:21:23;;;;;;;4.45;2.55;;;;;;;20.11;72.27;101772.19;11068014;26;19997;-72
2024/04/13 17:26:23;;;;;;;4.15;2.28;;;;;;;19.89;73.91;101764.53;11069041;26;20025;-72
2024/04/13 17:31:24;;;;;;;2.53;2.15;;;;;;;19.72;76.49;101756.16;11065613;26;20001;-72
2024/04/13 17:36:25;;;;;;;4.15;3.08;;;;;;;19.70;78.15;101746.50;11065261;26;20449;-72
2024/04/13 17:41:25;;;;;;;6.63;3.92;;;;;;;19.38;83.33;101727.53;11064280;26;19997;-72
2024/04/13 17:46:25;;;;;;;9.18;3.22;;;;;;;19.14;86.31;101740.34;11062722;26;20024;-72
2024/04/13 17:51:26;;;;;;;3.67;3.35;;;;;;;18.92;89.05;101739.22;11063306;26;20029;-72
2024/04/13 17:56:26;;;;;;;2.60;2.40;;;;;;;18.71;89.24;101738.63;11063687;26;20429;-72
2024/04/13 18:01:27;;;;;;;5.72;2.40;;;;;;;18.50;86.58;101741.84;11063548;26;20021;-72
2024/04/13 18:06:27;;;;;;;3.05;2.15;;;;;;;18.22;85.17;101737.75;11064552;26;20011;-72
2024/04/13 18:11:27;;;;;;;7.78;2.00;;;;;;;18.00;82.27;101740.09;11034965;26;19996;-72
2024/04/13 18:16:30;;;;;;;1.98;1.83;;;;;;;17.76;81.55;101752.72;11067786;26;20439;-71
2024/04/13 18:21:30;;;;;;;1.85;1.63;;;;;;;17.57;82.51;101746.34;11063941;26;20428;-72
2024/04/13 18:26:31;;;;;;;4.22;2.15;;;;;;;17.38;83.62;101745.44;11063444;26;19997;-71
2024/04/13 18:31:32;;;;;;;5.75;1.80;;;;;;;17.13;86.45;101760.97;11062071;26;20036;-72
2024/04/13 18:36:32;;;;;;;4.93;2.92;;;;;;;17.03;86.28;101746.94;11061495;26;20439;-71
2024/04/13 18:41:36;;;;;;;1.27;1.17;;;;;;;16.90;86.80;101756.91;11063136;26;20007;-72
2024/04/13 18:46:36;;;;;;;3.97;1.77;;;;;;;16.96;85.36;101747.81;11063023;26;20325;-72
2024/04/13 18:51:37;;;;;;;3.85;1.98;;;;;;;16.86;86.99;101758.41;11063067;26;20009;-72
2024/04/13 18:56:37;;;;;;;18.45;2.58;;;;;;;16.83;87.62;101768.94;11063123;26;20416;-72
2024/04/13 19:01:38;;;;;;;3.20;1.60;;;;;;;16.75;90.16;101753.59;11063629;26;20036;-72
2024/04/13 19:06:39;;;;;;;6.80;1.33;;;;;;;16.81;90.13;101760.09;11061543;26;20000;-72
2024/04/13 19:11:39;;;;;;;7.22;2.08;;;;;;;16.63;96.24;101766.28;11062415;26;20012;-71
2024/04/13 19:16:40;;;;;;;5.18;1.52;;;;;;;16.45;100.00;101759.59;11062702;26;20090;-72
2024/04/13 19:21:40;;;;;;;2.08;1.73;;;;;;;16.26;100.00;101757.75;11061965;26;20004;-72
2024/04/13 19:26:41;;;;;;;7.47;2.40;;;;;;;16.13;100.00;101746.88;11061668;26;20011;-72
2024/04/13 19:31:41;;;;;;;2.20;1.60;;;;;;;15.95;100.00;101759.31;11061097;26;20001;-72
2024/04/13 19:36:41;;;;;;;3.70;2.60;;;;;;;15.88;100.00;101763.09;11060620;26;20001;-72
2024/04/13 19:41:43;;;;;;;3.13;1.88;;;;;;;15.76;100.00;101757.41;11061638;26;20011;-72
2024/04/13 19:46:43;;;;;;;4.00;1.63;;;;;;;15.78;100.00;101766.25;11061462;26;20008;-72
2024/04/13 19:51:44;;;;;;;4.32;1.88;;;;;;;15.67;100.00;101788.75;11032588;26;19999;-72
2024/04/13 19:56:44;;;;;;;7.53;1.88;;;;;;;15.66;100.00;101795.19;11064439;26;20008;-72
2024/04/13 20:01:44;;;;;;;5.55;1.90;;;;;;;15.52;100.00;101800.66;11035281;26;19993;-71
2024/04/13 20:06:45;;;;;;;4.53;1.98;;;;;;;15.33;100.00;101790.53;11060038;26;20001;-72
2024/04/13 20:11:46;;;;;;;4.75;2.30;;;;;;;15.16;100.00;101795.56;11061148;26;20402;-72
2024/04/13 20:22:05;;;;;;;11.82;2.72;;;;;;;14.89;100.00;101789.16;11069547;26;19997;-72
2024/04/13 20:27:06;;;;;;;7.97;2.78;;;;;;;14.72;100.00;101787.84;11036604;26;19997;-71
2024/04/13 20:32:06;;;;;;;6.40;2.92;;;;;;;14.59;100.00;101788.63;11067875;26;20004;-72
2024/04/13 20:37:07;;;;;;;14.00;3.20;;;;;;;14.44;100.00;101788.72;11067310;26;20009;-71
2024/04/13 20:42:07;;;;;;;13.95;2.47;;;;;;;14.32;100.00;101790.31;11069009;26;20095;-71
2024/04/13 20:47:08;;;;;;;7.07;3.08;;;;;;;14.32;98.87;101799.34;11066140;26;20369;-72
2024/04/13 20:52:08;;;;;;;12.18;4.63;;;;;;;14.17;98.59;101794.03;11067745;26;20012;-72
2024/04/13 20:57:09;;;;;;;12.20;2.83;;;;;;;14.24;96.08;101806.84;11037553;26;20009;-72
2024/04/13 21:02:09;;;;;;;12.65;4.53;;;;;;;14.08;98.96;101811.56;11067258;26;20035;-72
2024/04/13 21:07:10;;;;;;;7.35;3.33;;;;;;;14.09;98.18;101812.41;11037223;26;20000;-72
2024/04/13 21:12:10;;;;;;;8.73;3.42;;;;;;;14.10;97.44;101825.84;11067755;26;20421;-72
2024/04/13 21:17:10;;;;;;;4.18;3.65;;;;;;;14.09;96.86;101831.47;11035668;26;20488;-72
2024/04/13 21:22:11;;;;;;;3.85;3.35;;;;;;;14.15;96.36;101841.56;11064247;26;20000;-71
2024/04/13 21:27:13;;;;;;;10.48;3.90;;;;;;;14.21;95.81;101850.84;11064383;26;20363;-71
2024/04/13 21:32:13;;;;;;;7.55;2.88;;;;;;;14.20;95.11;101852.72;11062627;26;20000;-71
2024/04/13 21:37:14;;;;;;;5.07;3.25;;;;;;;14.19;94.89;101857.31;11065764;26;20449;-72
2024/04/13 21:42:14;;;;;;;10.15;3.47;;;;;;;14.25;95.31;101849.38;11063995;26;20005;-71
2024/04/13 21:47:15;;;;;;;5.07;2.95;;;;;;;14.33;93.69;101850.09;11065566;26;20008;-72
2024/04/13 21:52:15;;;;;;;14.27;4.75;;;;;;;14.36;94.21;101867.94;11067085;26;20044;-72
2024/04/13 21:57:16;;;;;;;13.45;3.30;;;;;;;14.39;93.73;101864.81;11035638;26;20102;-74
2024/04/13 22:02:16;;;;;;;8.32;3.72;;;;;;;14.33;95.68;101871.06;11035783;26;20001;-73
2024/04/13 22:07:18;;;;;;;11.77;5.05;;;;;;;14.31;96.80;101868.50;11064314;26;20005;-72
2024/04/13 22:12:18;;;;;;;14.77;4.00;;;;;;;14.32;97.96;101880.25;11065125;26;19997;-72
2024/04/13 22:17:19;;;;;;;7.70;3.17;;;;;;;14.24;99.21;101889.41;11065026;26;19997;-72
2024/04/13 22:22:21;;;;;;;10.57;3.65;;;;;;;14.18;100.00;101882.03;11062344;26;20066;-72
2024/04/13 22:27:21;;;;;;;8.45;4.38;;;;;;;14.17;100.00;101893.97;11062432;26;20387;-72
2024/04/13 22:32:22;;;;;;;13.95;3.38;;;;;;;14.34;100.00;101894.53;11036670;26;20066;-72
2024/04/13 22:37:23;;;;;;;6.20;2.85;;;;;;;14.40;100.00;101896.47;11035740;26;20076;-72
2024/04/13 22:42:25;;;;;;;4.15;2.58;;;;;;;14.33;100.00;101903.75;11062043;26;20001;-72
2024/04/13 22:47:25;;;;;;;7.47;3.40;;;;;;;14.21;100.00;101910.78;11063540;26;19997;-71
2024/04/13 22:52:26;;;;;;;7.75;4.25;;;;;;;14.10;100.00;101925.75;11063484;26;20388;-72
2024/04/13 22:57:26;;;;;;;17.33;4.65;;;;;;;14.07;100.00;101929.72;11034567;26;20314;-72